METAR Data
IDs: Format: Raw Decoded Include TAF

Data at: 0754 UTC 01 Dec 2022

VTCC 010730Z 14004KT 110V190 9999 FEW025CB SCT035 32/22 Q1010 NOSIG
VTCC 010700Z VRB04KT 9999 FEW025CB SCT035 32/22 Q1010 NOSIG
VTCC 010630Z 16005KT 130V200 9999 FEW025CB SCT035 32/21 Q1011 NOSIG
VTCC 010600Z VRB03KT 9999 FEW025CB SCT035 31/21 Q1012 NOSIG
VTCC 010530Z VRB03KT 9999 FEW025CB SCT035 31/22 Q1013 NOSIG
VTCC 010500Z 30003KT 220V340 9999 FEW035 30/21 Q1013 NOSIG
VTCC 010430Z VRB02KT 9999 FEW035 30/22 Q1014 NOSIG
VTCC 010400Z 33004KT 300V010 9999 FEW035 29/22 Q1015 NOSIG
VTCC 010330Z 02004KT 280V080 9999 FEW035 28/22 Q1015 NOSIG
VTCC 010300Z VRB02KT 9999 FEW035 28/22 Q1015 NOSIG
VTCC 010230Z VRB02KT 9999 SCT035 27/22 Q1015 NOSIG
VTCC 010200Z VRB02KT 9999 BKN035 26/23 Q1015 NOSIG
VTCC 010130Z VRB02KT 9999 BKN035 25/23 Q1015 NOSIG
VTCC 010100Z 17004KT 9999 SCT035 25/23 Q1015 NOSIG
VTCC 010030Z VRB01KT 9999 SCT035 25/22 Q1014 NOSIG
VTCC 010000Z VRB01KT 9999 SCT035 24/22 Q1013 NOSIG
VTCC 302330Z VRB02KT 9999 SCT035 24/22 Q1013 NOSIG
VTCC 302300Z 19002KT 9999 SCT035 24/22 Q1012 NOSIG
VTCC 302230Z 00000KT 9999 SCT035 24/22 Q1012 NOSIG
VTCC 302200Z VRB01KT 9999 SCT035 24/22 Q1012 NOSIG
VTCC 302130Z 27002KT 9999 SCT035 24/22 Q1012 NOSIG
VTCC 302100Z VRB01KT 9999 SCT035 24/23 Q1012 NOSIG
VTCC 302030Z 00000KT 9999 SCT035 25/22 Q1012 NOSIG
VTCC 302000Z VRB02KT 9999 SCT035 25/22 Q1012 NOSIG

TAF VTCC 010500Z 0106/0212 17005KT 9999 SCT035
  TEMPO 0108/0114 18010G25KT 4000 TSRA FEW025CB BKN035
  BECMG 0109/0111 23005KT
  BECMG 0112/0115 30005KT
  TEMPO 0206/0212 -TSRA FEW025CB BKN035